Time;durP1;ratioP1;P1;durP2;ratioP2;P2;SDS_P1;SDS_P2;PMS_P1;PMS_P2;Temp;Humidity;BMP_temperature;BMP_pressure;BME280_temperature;BME280_humidity;BME280_pressure;Samples;Min_cycle;Max_cycle;Signal;HPM_P1;HPM_P2
2022/01/10 00:02:05;;;;;;;;;59.00;49.50;;;;;;;;4976526;28;45448;-55
2022/01/10 00:04:30;;;;;;;;;57.75;48.75;;;;;;;;4977968;28;45380;-55
2022/01/10 00:06:55;;;;;;;;;58.75;50.25;;;;;;;;4978430;28;45464;-54
2022/01/10 00:09:20;;;;;;;;;60.25;49.00;;;;;;;;4977635;28;45432;-52
2022/01/10 00:11:45;;;;;;;;;64.50;51.00;;;;;;;;4978469;28;45513;-51
2022/01/10 00:14:11;;;;;;;;;59.50;49.00;;;;;;;;4977923;28;46058;-51
2022/01/10 00:16:36;;;;;;;;;63.50;52.75;;;;;;;;4975622;28;45533;-54
2022/01/10 00:19:01;;;;;;;;;60.25;50.00;;;;;;;;4977714;28;45394;-54
2022/01/10 00:21:26;;;;;;;;;62.75;52.25;;;;;;;;4977507;28;45512;-54
2022/01/10 00:23:52;;;;;;;;;61.00;50.75;;;;;;;;4977300;28;46466;-54
2022/01/10 00:26:17;;;;;;;;;60.25;50.50;;;;;;;;4974512;28;45398;-52
2022/01/10 00:28:42;;;;;;;;;59.50;50.25;;;;;;;;4977866;28;45519;-53
2022/01/10 00:31:07;;;;;;;;;58.75;50.75;;;;;;;;4977729;28;45563;-53
2022/01/10 00:33:32;;;;;;;;;60.75;50.75;;;;;;;;4977188;28;46036;-55
2022/01/10 00:35:58;;;;;;;;;59.50;49.00;;;;;;;;4975306;28;45471;-51
2022/01/10 00:38:23;;;;;;;;;59.00;48.00;;;;;;;;4977022;28;45532;-54
2022/01/10 00:40:50;;;;;;;;;56.75;47.00;;;;;;;;4977076;28;45523;-53
2022/01/10 00:43:19;;;;;;;;;59.25;48.75;;;;;;;;4976715;28;46004;-54
2022/01/10 00:45:44;;;;;;;;;60.25;51.00;;;;;;;;4962569;28;45399;-54
2022/01/10 00:48:09;;;;;;;;;57.50;48.75;;;;;;;;4977484;28;45468;-54
2022/01/10 00:50:34;;;;;;;;;60.25;50.25;;;;;;;;4977341;28;45570;-55
2022/01/10 00:53:01;;;;;;;;;59.00;48.00;;;;;;;;4977831;28;46285;-53
2022/01/10 00:55:27;;;;;;;;;56.00;49.00;;;;;;;;4977777;28;45463;-53
2022/01/10 00:57:52;;;;;;;;;58.25;50.00;;;;;;;;4963605;28;45722;-55
2022/01/10 01:00:17;;;;;;;;;54.00;46.00;;;;;;;;4969661;28;45392;-53
2022/01/10 01:02:43;;;;;;;;;59.25;47.50;;;;;;;;4977536;28;45370;-55
2022/01/10 01:05:11;;;;;;;;;53.00;45.75;;;;;;;;4977412;28;45417;-53
2022/01/10 01:07:36;;;;;;;;;56.50;45.75;;;;;;;;4976870;28;45535;-54
2022/01/10 01:12:51;;;;;;;;;49.75;44.25;;;;;;;;4971955;28;45512;-54
2022/01/10 01:15:23;;;;;;;;;51.75;43.50;;;;;;;;4961528;28;45422;-53
2022/01/10 01:18:15;;;;;;;;;50.50;44.75;;;;;;;;4977203;28;45395;-52
2022/01/10 01:25:50;;;;;;;;;49.75;43.75;;;;;;;;4977247;28;45448;-52
2022/01/10 01:28:16;;;;;;;;;54.50;45.00;;;;;;;;4976472;28;45311;-55
2022/01/10 01:30:42;;;;;;;;;55.50;44.75;;;;;;;;4975592;28;45719;-55
2022/01/10 01:33:08;;;;;;;;;48.00;41.25;;;;;;;;4975064;28;45528;-54
2022/01/10 01:35:35;;;;;;;;;54.00;45.50;;;;;;;;4975925;28;45401;-52
2022/01/10 01:38:00;;;;;;;;;49.25;42.50;;;;;;;;4976966;28;45504;-54
2022/01/10 01:40:28;;;;;;;;;39.00;37.25;;;;;;;;4976202;28;45471;-52
2022/01/10 01:42:54;;;;;;;;;44.50;40.25;;;;;;;;4976507;28;46032;-53
2022/01/10 01:45:34;;;;;;;;;44.50;41.00;;;;;;;;4975304;28;45333;-55
2022/01/10 01:47:59;;;;;;;;;53.00;44.00;;;;;;;;4976643;28;45471;-54
2022/01/10 01:50:25;;;;;;;;;49.50;42.25;;;;;;;;4976229;28;45505;-56
2022/01/10 01:52:50;;;;;;;;;53.00;44.75;;;;;;;;4976087;28;46040;-50
2022/01/10 01:55:15;;;;;;;;;49.75;44.00;;;;;;;;4976731;28;45480;-53
2022/01/10 01:57:41;;;;;;;;;49.75;44.50;;;;;;;;4977032;28;45436;-52
2022/01/10 02:00:07;;;;;;;;;58.75;48.00;;;;;;;;4976716;28;45374;-51
2022/01/10 02:02:32;;;;;;;;;58.00;48.25;;;;;;;;4975433;28;46268;-54
2022/01/10 02:04:57;;;;;;;;;49.75;44.00;;;;;;;;4976821;28;45294;-54
2022/01/10 02:07:22;;;;;;;;;55.00;47.00;;;;;;;;4975952;28;45482;-54
2022/01/10 02:09:48;;;;;;;;;58.00;48.00;;;;;;;;4976564;28;45528;-53
2022/01/10 02:12:13;;;;;;;;;52.50;44.75;;;;;;;;4976508;28;45990;-52
2022/01/10 02:14:40;;;;;;;;;55.25;45.50;;;;;;;;4975730;28;45393;-53
2022/01/10 02:17:05;;;;;;;;;57.75;46.50;;;;;;;;4976325;28;45392;-55
2022/01/10 02:19:31;;;;;;;;;50.50;43.50;;;;;;;;4975883;28;45620;-54
2022/01/10 02:21:56;;;;;;;;;54.00;46.00;;;;;;;;4975839;28;46379;-55
2022/01/10 02:24:23;;;;;;;;;56.00;45.50;;;;;;;;4975364;28;45560;-53
2022/01/10 02:26:49;;;;;;;;;44.75;40.50;;;;;;;;4974341;28;45524;-53
2022/01/10 02:29:14;;;;;;;;;54.25;45.75;;;;;;;;4970049;28;45682;-53
2022/01/10 02:31:40;;;;;;;;;48.50;43.50;;;;;;;;4965435;28;45527;-54
2022/01/10 02:34:05;;;;;;;;;45.75;41.75;;;;;;;;4972142;28;45528;-54
2022/01/10 02:36:31;;;;;;;;;55.50;45.00;;;;;;;;4976053;28;45508;-54
2022/01/10 02:38:57;;;;;;;;;49.25;42.25;;;;;;;;4969589;28;45448;-54
2022/01/10 02:41:27;;;;;;;;;45.50;41.75;;;;;;;;4970084;28;45392;-53
2022/01/10 02:43:52;;;;;;;;;51.25;41.25;;;;;;;;4975705;28;45449;-56
2022/01/10 02:46:18;;;;;;;;;52.50;44.00;;;;;;;;4974469;28;45364;-54
2022/01/10 02:48:43;;;;;;;;;46.25;40.50;;;;;;;;4974932;28;45626;-54
2022/01/10 02:51:08;;;;;;;;;43.00;39.00;;;;;;;;4958278;28;45971;-52
2022/01/10 02:53:34;;;;;;;;;50.00;43.00;;;;;;;;4967581;28;45568;-55
2022/01/10 02:55:59;;;;;;;;;49.00;42.25;;;;;;;;4975354;28;45460;-54
2022/01/10 02:58:24;;;;;;;;;48.25;42.75;;;;;;;;4976187;28;45540;-53
2022/01/10 03:00:49;;;;;;;;;51.00;43.25;;;;;;;;4978470;28;45411;-56
2022/01/10 03:03:15;;;;;;;;;47.25;41.50;;;;;;;;4978703;28;45529;-55
2022/01/10 03:05:40;;;;;;;;;44.50;41.00;;;;;;;;4979346;28;45471;-54
2022/01/10 03:08:05;;;;;;;;;46.50;40.25;;;;;;;;4978319;28;45504;-55
2022/01/10 03:10:31;;;;;;;;;51.75;45.25;;;;;;;;4979269;28;46016;-54
2022/01/10 03:12:57;;;;;;;;;45.75;39.25;;;;;;;;4978678;28;45496;-55
2022/01/10 03:15:22;;;;;;;;;47.75;41.50;;;;;;;;4979006;28;45492;-55
2022/01/10 03:17:47;;;;;;;;;46.50;41.50;;;;;;;;4978554;28;45449;-55
2022/01/10 03:20:12;;;;;;;;;46.75;41.75;;;;;;;;4978145;28;45416;-53
2022/01/10 03:22:38;;;;;;;;;51.25;44.00;;;;;;;;4978490;28;45366;-55
2022/01/10 03:25:04;;;;;;;;;40.50;38.50;;;;;;;;4978877;28;45372;-54
2022/01/10 03:27:29;;;;;;;;;43.75;39.75;;;;;;;;4978271;28;45323;-53
2022/01/10 03:29:54;;;;;;;;;46.00;42.75;;;;;;;;4977850;28;45383;-56
2022/01/10 03:32:19;;;;;;;;;44.00;40.50;;;;;;;;4977046;28;45396;-52
2022/01/10 03:34:45;;;;;;;;;51.25;44.75;;;;;;;;4978243;28;45380;-53
2022/01/10 03:37:10;;;;;;;;;50.00;43.00;;;;;;;;4978669;28;45639;-54
2022/01/10 03:39:35;;;;;;;;;44.75;40.75;;;;;;;;4978212;28;45380;-54
2022/01/10 03:42:01;;;;;;;;;40.00;38.00;;;;;;;;4977840;28;45417;-55
2022/01/10 03:44:26;;;;;;;;;45.25;41.00;;;;;;;;4977309;28;45463;-55
2022/01/10 03:46:51;;;;;;;;;48.75;40.50;;;;;;;;4977840;28;45524;-54
2022/01/10 03:49:17;;;;;;;;;47.00;41.25;;;;;;;;4978358;28;45510;-54
2022/01/10 03:51:42;;;;;;;;;50.50;42.75;;;;;;;;4978284;28;45421;-52
2022/01/10 03:54:07;;;;;;;;;52.00;43.50;;;;;;;;4977761;28;45513;-53
2022/01/10 03:56:33;;;;;;;;;44.50;40.75;;;;;;;;4978039;28;45519;-55
2022/01/10 03:58:58;;;;;;;;;49.25;44.25;;;;;;;;4978380;28;45970;-52
2022/01/10 04:01:24;;;;;;;;;43.25;40.50;;;;;;;;4977844;28;45409;-53
2022/01/10 04:03:49;;;;;;;;;53.50;44.00;;;;;;;;4977617;28;45423;-53
2022/01/10 04:06:14;;;;;;;;;55.75;47.50;;;;;;;;4978286;28;45480;-54
2022/01/10 04:08:39;;;;;;;;;47.25;42.00;;;;;;;;4977833;28;46037;-54
2022/01/10 04:11:05;;;;;;;;;55.75;44.50;;;;;;;;4977703;28;45448;-50
2022/01/10 04:13:30;;;;;;;;;54.00;45.50;;;;;;;;4977428;28;45424;-54
2022/01/10 04:15:55;;;;;;;;;49.50;42.00;;;;;;;;4977965;28;45539;-52
2022/01/10 04:18:21;;;;;;;;;57.25;44.50;;;;;;;;4977992;28;46322;-53
2022/01/10 04:20:46;;;;;;;;;48.25;43.00;;;;;;;;4977903;28;45456;-50
2022/01/10 04:23:12;;;;;;;;;50.50;42.50;;;;;;;;4977644;28;45573;-52
2022/01/10 04:25:37;;;;;;;;;49.25;44.00;;;;;;;;4977520;28;45531;-54
2022/01/10 04:28:03;;;;;;;;;49.25;44.00;;;;;;;;4976931;28;45471;-53
2022/01/10 04:30:28;;;;;;;;;49.25;42.50;;;;;;;;4980096;28;45540;-54
2022/01/10 04:32:53;;;;;;;;;49.75;41.75;;;;;;;;4977661;28;45409;-54
2022/01/10 04:35:19;;;;;;;;;50.75;44.00;;;;;;;;4977437;28;45361;-58
2022/01/10 04:37:44;;;;;;;;;50.75;43.00;;;;;;;;4977036;28;45905;-54
2022/01/10 04:40:10;;;;;;;;;50.75;44.25;;;;;;;;4977818;28;45431;-51
2022/01/10 04:42:35;;;;;;;;;56.50;42.50;;;;;;;;4976906;28;45442;-55
2022/01/10 04:45:01;;;;;;;;;53.00;44.75;;;;;;;;4977809;28;45419;-53
2022/01/10 04:47:26;;;;;;;;;52.50;45.00;;;;;;;;4976774;28;46055;-53
2022/01/10 04:52:19;;;;;;;;;59.00;47.50;;;;;;;;4977948;28;45381;-54
2022/01/10 04:54:45;;;;;;;;;54.00;46.50;;;;;;;;4977640;28;45440;-54
2022/01/10 04:57:10;;;;;;;;;53.00;44.75;;;;;;;;4977615;28;45465;-53
2022/01/10 04:59:35;;;;;;;;;52.75;43.75;;;;;;;;4975701;28;45505;-53
2022/01/10 05:02:01;;;;;;;;;49.50;41.75;;;;;;;;4976038;28;45459;-52
2022/01/10 05:04:27;;;;;;;;;57.25;47.25;;;;;;;;4977215;28;45507;-50
2022/01/10 05:06:52;;;;;;;;;53.25;46.75;;;;;;;;4977229;28;45524;-53
2022/01/10 05:09:17;;;;;;;;;57.25;47.50;;;;;;;;4975068;28;45512;-52
2022/01/10 05:11:43;;;;;;;;;58.50;48.00;;;;;;;;4977471;28;45566;-53
2022/01/10 05:14:08;;;;;;;;;55.50;48.50;;;;;;;;4976554;28;45566;-51
2022/01/10 05:16:33;;;;;;;;;49.25;44.75;;;;;;;;4977336;28;45347;-53
2022/01/10 05:18:58;;;;;;;;;57.50;48.00;;;;;;;;4976986;28;45503;-51
2022/01/10 05:21:24;;;;;;;;;54.75;42.00;;;;;;;;4976087;28;45401;-54
2022/01/10 05:23:49;;;;;;;;;57.00;47.75;;;;;;;;4977139;28;45572;-53
2022/01/10 05:26:14;;;;;;;;;53.25;45.00;;;;;;;;4976105;28;47436;-50
2022/01/10 05:28:39;;;;;;;;;54.00;44.00;;;;;;;;4977021;28;45644;-53
2022/01/10 05:31:05;;;;;;;;;58.00;49.50;;;;;;;;4975989;28;45482;-53
2022/01/10 05:33:30;;;;;;;;;55.75;43.75;;;;;;;;4975400;28;45676;-51
2022/01/10 05:35:55;;;;;;;;;49.00;43.50;;;;;;;;4976861;28;45309;-54
2022/01/10 05:38:21;;;;;;;;;47.75;42.75;;;;;;;;4976544;28;45333;-53
2022/01/10 05:40:46;;;;;;;;;57.25;46.75;;;;;;;;4976929;28;45377;-53
2022/01/10 05:43:11;;;;;;;;;51.50;41.50;;;;;;;;4976419;28;45456;-51
2022/01/10 05:45:36;;;;;;;;;56.25;45.25;;;;;;;;4976875;28;46217;-53
2022/01/10 05:48:08;;;;;;;;;54.25;45.50;;;;;;;;4976653;28;45371;-53
2022/01/10 05:50:35;;;;;;;;;50.00;43.00;;;;;;;;4975628;28;45500;-50
2022/01/10 05:53:01;;;;;;;;;50.75;45.00;;;;;;;;4976081;28;45614;-52
2022/01/10 05:55:27;;;;;;;;;55.25;47.75;;;;;;;;4975894;28;46466;-55
2022/01/10 05:57:52;;;;;;;;;44.75;41.50;;;;;;;;4975991;28;45563;-53
2022/01/10 06:00:18;;;;;;;;;54.25;45.25;;;;;;;;4976343;28;45507;-55
2022/01/10 06:02:43;;;;;;;;;52.50;43.75;;;;;;;;4976043;28;45594;-53
2022/01/10 06:05:09;;;;;;;;;62.25;46.25;;;;;;;;4976250;28;45408;-55
2022/01/10 06:07:36;;;;;;;;;56.50;48.50;;;;;;;;4976419;28;45459;-53
2022/01/10 06:10:02;;;;;;;;;57.75;48.00;;;;;;;;4976523;28;45473;-52
2022/01/10 06:12:27;;;;;;;;;50.25;44.25;;;;;;;;4976148;28;45502;-52
2022/01/10 06:14:52;;;;;;;;;52.75;47.00;;;;;;;;4975658;28;46025;-54
2022/01/10 06:17:18;;;;;;;;;52.75;46.25;;;;;;;;4974823;28;45604;-53
2022/01/10 06:19:43;;;;;;;;;52.00;41.50;;;;;;;;4976298;28;45294;-54
2022/01/10 06:22:08;;;;;;;;;42.75;39.75;;;;;;;;4975784;28;45511;-54
2022/01/10 06:24:33;;;;;;;;;54.75;48.00;;;;;;;;4975486;28;45410;-54
2022/01/10 06:26:58;;;;;;;;;52.00;45.75;;;;;;;;4975658;28;45503;-53
2022/01/10 06:29:24;;;;;;;;;49.50;43.00;;;;;;;;4975896;28;45507;-54
2022/01/10 06:31:49;;;;;;;;;61.25;48.50;;;;;;;;4976050;28;45630;-51
2022/01/10 06:34:14;;;;;;;;;51.75;43.75;;;;;;;;4974917;28;46212;-51
2022/01/10 06:36:40;;;;;;;;;52.50;45.50;;;;;;;;4975894;28;45417;-54
2022/01/10 06:39:05;;;;;;;;;52.25;45.00;;;;;;;;4975322;28;45457;-51
2022/01/10 06:41:30;;;;;;;;;52.75;43.50;;;;;;;;4973749;28;45550;-53
2022/01/10 06:43:55;;;;;;;;;60.25;48.00;;;;;;;;4974536;28;46594;-50
2022/01/10 06:46:20;;;;;;;;;59.25;50.25;;;;;;;;4974575;28;45411;-52
2022/01/10 06:48:46;;;;;;;;;58.00;49.00;;;;;;;;4974263;28;45495;-53
2022/01/10 06:51:11;;;;;;;;;56.25;47.50;;;;;;;;4974525;28;45447;-56
2022/01/10 06:53:36;;;;;;;;;56.75;43.50;;;;;;;;4973953;28;45569;-54
2022/01/10 06:56:01;;;;;;;;;57.25;48.25;;;;;;;;4973586;28;45622;-54
2022/01/10 06:58:27;;;;;;;;;56.50;48.00;;;;;;;;4979859;28;45559;-51
2022/01/10 07:00:52;;;;;;;;;52.00;45.00;;;;;;;;4974388;28;45560;-53
2022/01/10 07:03:17;;;;;;;;;53.25;45.50;;;;;;;;4974705;28;46242;-53
2022/01/10 07:05:42;;;;;;;;;46.50;42.00;;;;;;;;4987801;28;45418;-52
2022/01/10 07:08:07;;;;;;;;;42.00;38.00;;;;;;;;4973631;28;45526;-54
2022/01/10 07:10:33;;;;;;;;;38.75;32.00;;;;;;;;4974913;28;45380;-54
2022/01/10 07:12:58;;;;;;;;;39.00;34.50;;;;;;;;4977847;28;46372;-50
2022/01/10 07:15:25;;;;;;;;;27.50;26.00;;;;;;;;4976026;28;45521;-51
2022/01/10 07:17:51;;;;;;;;;32.75;31.00;;;;;;;;4995330;28;45412;-51
2022/01/10 07:20:16;;;;;;;;;33.00;31.25;;;;;;;;4977213;28;45557;-53
2022/01/10 07:22:41;;;;;;;;;30.00;28.50;;;;;;;;4971623;28;46357;-53
2022/01/10 07:25:07;;;;;;;;;35.50;32.25;;;;;;;;4973789;28;45566;-51
2022/01/10 07:27:34;;;;;;;;;34.50;28.00;;;;;;;;4975096;28;45401;-54
2022/01/10 07:30:00;;;;;;;;;33.25;29.00;;;;;;;;4975433;28;45389;-53
2022/01/10 07:32:29;;;;;;;;;23.75;23.50;;;;;;;;4974321;28;46172;-50
2022/01/10 07:34:54;;;;;;;;;27.75;26.00;;;;;;;;4973551;28;45381;-52
2022/01/10 07:37:20;;;;;;;;;22.00;19.50;;;;;;;;4975063;28;45420;-54
2022/01/10 07:39:45;;;;;;;;;23.25;21.75;;;;;;;;4973958;28;45516;-50
2022/01/10 07:42:10;;;;;;;;;21.00;20.50;;;;;;;;4975318;28;46479;-51
2022/01/10 07:44:36;;;;;;;;;23.25;22.75;;;;;;;;4974169;28;45410;-54
2022/01/10 07:47:02;;;;;;;;;20.00;18.50;;;;;;;;4977115;28;45621;-53
2022/01/10 07:49:27;;;;;;;;;26.25;26.25;;;;;;;;4978684;28;45567;-50
2022/01/10 07:51:52;;;;;;;;;18.50;18.00;;;;;;;;4977425;28;45560;-52
2022/01/10 07:54:17;;;;;;;;;26.25;24.50;;;;;;;;4977636;28;45468;-54
2022/01/10 07:56:43;;;;;;;;;27.75;26.25;;;;;;;;4978518;28;45464;-51
2022/01/10 07:59:08;;;;;;;;;31.25;27.75;;;;;;;;4978200;28;45988;-51
2022/01/10 08:01:33;;;;;;;;;30.75;27.50;;;;;;;;4978220;28;45458;-53
2022/01/10 08:03:58;;;;;;;;;26.75;26.75;;;;;;;;4978414;28;45555;-51
2022/01/10 08:06:24;;;;;;;;;31.75;29.25;;;;;;;;4977912;28;45330;-54
2022/01/10 08:08:49;;;;;;;;;35.25;33.50;;;;;;;;4976995;28;45362;-54
2022/01/10 08:11:15;;;;;;;;;40.75;36.00;;;;;;;;4977499;28;45492;-55
2022/01/10 08:13:41;;;;;;;;;38.00;34.75;;;;;;;;4977751;28;45503;-54
2022/01/10 08:16:07;;;;;;;;;45.25;39.00;;;;;;;;4977740;28;45467;-54
2022/01/10 08:18:33;;;;;;;;;44.50;41.00;;;;;;;;4977966;28;45643;-53
2022/01/10 08:20:59;;;;;;;;;42.75;37.75;;;;;;;;4977507;28;46122;-50
2022/01/10 08:23:25;;;;;;;;;36.00;32.25;;;;;;;;4977794;28;45480;-53
2022/01/10 08:25:50;;;;;;;;;46.25;38.25;;;;;;;;4978419;28;45423;-50
2022/01/10 08:28:15;;;;;;;;;33.25;31.50;;;;;;;;4977471;28;45462;-53
2022/01/10 08:30:41;;;;;;;;;33.50;32.25;;;;;;;;4978065;28;45630;-54
2022/01/10 08:33:06;;;;;;;;;38.25;33.75;;;;;;;;4977530;28;45411;-51
2022/01/10 08:35:31;;;;;;;;;32.00;30.75;;;;;;;;4977813;28;45479;-55
2022/01/10 08:37:57;;;;;;;;;36.25;30.50;;;;;;;;4977759;28;45686;-58
2022/01/10 08:40:22;;;;;;;;;26.75;24.50;;;;;;;;4977748;28;45525;-55
2022/01/10 08:42:47;;;;;;;;;30.75;23.25;;;;;;;;4976409;28;45366;-54
2022/01/10 08:45:13;;;;;;;;;25.00;23.00;;;;;;;;4977813;28;45345;-56
2022/01/10 08:47:38;;;;;;;;;23.50;21.00;;;;;;;;4977750;28;45451;-51
2022/01/10 08:50:04;;;;;;;;;19.50;18.25;;;;;;;;4977252;28;45844;-53
2022/01/10 08:52:30;;;;;;;;;26.00;22.50;;;;;;;;4977524;28;45433;-54
2022/01/10 08:54:55;;;;;;;;;17.50;17.50;;;;;;;;4977593;28;45362;-54
2022/01/10 08:57:20;;;;;;;;;28.00;23.75;;;;;;;;4976614;28;45363;-53
2022/01/10 08:59:45;;;;;;;;;20.25;20.25;;;;;;;;4977432;28;45349;-53
2022/01/10 09:02:11;;;;;;;;;23.50;20.00;;;;;;;;4976889;28;45459;-51
2022/01/10 09:04:36;;;;;;;;;28.75;22.75;;;;;;;;4977651;28;45389;-51
2022/01/10 09:07:02;;;;;;;;;27.00;22.75;;;;;;;;4977184;28;45426;-51
2022/01/10 09:09:28;;;;;;;;;26.25;24.75;;;;;;;;4975923;28;46152;-52
2022/01/10 09:11:53;;;;;;;;;30.00;28.00;;;;;;;;4976854;28;45508;-52
2022/01/10 09:14:19;;;;;;;;;28.00;26.75;;;;;;;;4977310;28;45488;-54
2022/01/10 09:16:44;;;;;;;;;33.25;27.25;;;;;;;;4976005;28;45566;-51
2022/01/10 09:19:09;;;;;;;;;32.50;28.75;;;;;;;;4977045;28;45480;-50
2022/01/10 09:21:35;;;;;;;;;30.50;27.75;;;;;;;;4977198;28;45537;-52
2022/01/10 09:24:00;;;;;;;;;28.75;27.50;;;;;;;;4975559;28;45511;-50
2022/01/10 09:26:25;;;;;;;;;25.50;23.75;;;;;;;;4975982;28;45434;-53
2022/01/10 09:28:51;;;;;;;;;28.25;25.25;;;;;;;;4977285;28;45991;-49
2022/01/10 09:31:17;;;;;;;;;28.50;25.50;;;;;;;;4977077;28;45467;-52
2022/01/10 09:33:43;;;;;;;;;26.50;22.50;;;;;;;;4976785;28;45507;-50
2022/01/10 09:36:08;;;;;;;;;28.00;23.50;;;;;;;;4976819;28;45331;-50
2022/01/10 09:38:34;;;;;;;;;23.75;23.75;;;;;;;;4976703;28;46510;-52
2022/01/10 09:40:59;;;;;;;;;29.00;27.00;;;;;;;;4976740;28;45433;-54
2022/01/10 09:43:25;;;;;;;;;24.00;23.50;;;;;;;;4977089;28;45317;-52
2022/01/10 09:45:54;;;;;;;;;31.75;26.75;;;;;;;;4976734;28;45329;-51
2022/01/10 09:48:19;;;;;;;;;30.75;26.75;;;;;;;;4976745;28;45389;-56
2022/01/10 09:50:45;;;;;;;;;27.75;27.75;;;;;;;;4976814;28;45350;-52
2022/01/10 09:53:11;;;;;;;;;31.00;27.00;;;;;;;;4977069;28;45420;-53
2022/01/10 09:55:36;;;;;;;;;35.00;29.25;;;;;;;;4976494;28;45403;-53
2022/01/10 09:58:03;;;;;;;;;35.50;32.25;;;;;;;;4976486;28;46266;-53
2022/01/10 10:00:28;;;;;;;;;34.75;28.00;;;;;;;;4976496;28;45466;-53
2022/01/10 10:02:54;;;;;;;;;33.50;23.50;;;;;;;;4976541;28;45555;-54
2022/01/10 10:05:19;;;;;;;;;30.00;27.00;;;;;;;;4976509;28;45362;-54
2022/01/10 10:07:45;;;;;;;;;31.00;25.00;;;;;;;;4975450;28;46069;-54
2022/01/10 10:10:13;;;;;;;;;30.75;27.00;;;;;;;;4976398;28;45380;-52
2022/01/10 10:12:43;;;;;;;;;34.00;30.25;;;;;;;;4976560;28;45432;-54
2022/01/10 10:15:11;;;;;;;;;34.00;31.00;;;;;;;;4976309;28;45437;-53
2022/01/10 10:17:37;;;;;;;;;34.50;29.25;;;;;;;;4975588;28;45983;-52
2022/01/10 10:20:06;;;;;;;;;48.75;35.75;;;;;;;;4975883;28;45637;-56
2022/01/10 10:22:32;;;;;;;;;32.25;29.50;;;;;;;;4976242;28;45440;-53
2022/01/10 10:24:57;;;;;;;;;41.50;34.00;;;;;;;;4976231;28;45368;-53
2022/01/10 10:27:22;;;;;;;;;31.00;29.00;;;;;;;;4976217;28;45460;-54
2022/01/10 10:29:49;;;;;;;;;38.25;35.25;;;;;;;;4975930;28;45481;-51
2022/01/10 10:32:17;;;;;;;;;31.50;27.75;;;;;;;;4976220;28;45447;-54
2022/01/10 10:34:42;;;;;;;;;36.00;29.50;;;;;;;;4976121;28;45354;-52
2022/01/10 10:37:17;;;;;;;;;28.50;27.00;;;;;;;;4975948;28;46103;-54
2022/01/10 10:39:43;;;;;;;;;32.75;29.25;;;;;;;;4975326;28;45434;-53
2022/01/10 10:42:12;;;;;;;;;37.25;35.00;;;;;;;;4976084;28;45484;-53
2022/01/10 10:44:38;;;;;;;;;38.25;34.00;;;;;;;;4976038;28;45483;-54
2022/01/10 10:47:03;;;;;;;;;42.00;39.00;;;;;;;;4975514;28;46180;-53
2022/01/10 10:49:39;;;;;;;;;44.75;38.25;;;;;;;;4975803;28;45532;-51
2022/01/10 10:52:06;;;;;;;;;46.25;38.25;;;;;;;;4973998;28;45446;-52
2022/01/10 10:54:32;;;;;;;;;40.25;35.00;;;;;;;;4975893;28;45376;-50
2022/01/10 10:57:00;;;;;;;;;43.75;36.75;;;;;;;;4975829;28;46263;-52
2022/01/10 10:59:29;;;;;;;;;36.25;32.00;;;;;;;;4975976;28;45452;-51
2022/01/10 11:01:55;;;;;;;;;45.75;37.75;;;;;;;;4975475;28;45408;-50
2022/01/10 11:04:21;;;;;;;;;28.75;28.75;;;;;;;;4975630;28;45560;-50
2022/01/10 11:06:46;;;;;;;;;33.50;30.00;;;;;;;;4975944;28;45488;-54
2022/01/10 11:09:12;;;;;;;;;28.50;24.50;;;;;;;;4975850;28;45404;-50
2022/01/10 11:11:37;;;;;;;;;36.25;30.25;;;;;;;;4975695;28;45446;-52
2022/01/10 11:14:03;;;;;;;;;28.75;28.50;;;;;;;;4975174;28;45645;-51
2022/01/10 11:16:29;;;;;;;;;32.00;30.00;;;;;;;;4975416;28;46142;-53
2022/01/10 11:18:55;;;;;;;;;38.75;35.75;;;;;;;;4974024;28;45477;-53
2022/01/10 11:21:23;;;;;;;;;29.25;26.50;;;;;;;;4978819;28;45438;-54
2022/01/10 11:23:50;;;;;;;;;34.75;30.25;;;;;;;;4978792;28;45371;-52
2022/01/10 11:26:17;;;;;;;;;33.75;31.75;;;;;;;;4978500;28;45411;-51
2022/01/10 11:28:54;;;;;;;;;33.75;30.50;;;;;;;;4978887;28;45388;-53
2022/01/10 11:31:26;;;;;;;;;32.00;27.25;;;;;;;;4977862;28;45368;-53
2022/01/10 11:33:52;;;;;;;;;37.00;32.75;;;;;;;;4978802;28;45371;-52
2022/01/10 11:36:20;;;;;;;;;33.25;31.75;;;;;;;;4978746;28;45941;-51
2022/01/10 11:38:49;;;;;;;;;44.75;37.00;;;;;;;;4978728;28;45612;-53
2022/01/10 11:41:17;;;;;;;;;28.75;27.50;;;;;;;;4977284;28;45487;-52
2022/01/10 11:43:43;;;;;;;;;40.75;37.75;;;;;;;;4978688;28;45398;-51
2022/01/10 11:46:20;;;;;;;;;40.25;34.00;;;;;;;;4977722;28;45459;-54
2022/01/10 11:48:58;;;;;;;;;32.75;31.75;;;;;;;;4978214;28;45527;-51
2022/01/10 11:51:31;;;;;;;;;37.25;35.75;;;;;;;;4977962;28;45397;-51
2022/01/10 11:54:16;;;;;;;;;34.50;32.50;;;;;;;;4978546;28;45423;-53
2022/01/10 11:56:48;;;;;;;;;36.75;33.00;;;;;;;;4977572;28;45974;-52
2022/01/10 11:59:16;;;;;;;;;42.75;37.00;;;;;;;;4977878;28;45457;-49
2022/01/10 12:01:44;;;;;;;;;45.75;40.75;;;;;;;;4976619;28;45420;-52
2022/01/10 12:04:09;;;;;;;;;45.50;40.75;;;;;;;;4978021;28;45440;-54
2022/01/10 12:06:35;;;;;;;;;40.50;36.50;;;;;;;;4977906;28;45355;-57
2022/01/10 12:09:00;;;;;;;;;42.50;38.25;;;;;;;;4977508;28;45551;-54
2022/01/10 12:11:27;;;;;;;;;45.25;38.00;;;;;;;;4976864;28;45484;-51
2022/01/10 12:13:53;;;;;;;;;36.50;33.75;;;;;;;;4978328;28;45471;-53
2022/01/10 12:16:19;;;;;;;;;47.75;41.25;;;;;;;;4977907;28;45459;-53
2022/01/10 12:18:44;;;;;;;;;36.75;32.75;;;;;;;;4977361;28;45689;-55
2022/01/10 12:21:09;;;;;;;;;38.00;33.50;;;;;;;;4978157;28;45459;-56
2022/01/10 12:23:35;;;;;;;;;42.50;37.50;;;;;;;;4978430;28;45355;-50
2022/01/10 12:26:01;;;;;;;;;41.75;35.75;;;;;;;;4978114;28;45626;-52
2022/01/10 12:28:27;;;;;;;;;43.75;37.75;;;;;;;;4978253;28;45429;-52
2022/01/10 12:30:52;;;;;;;;;35.25;30.00;;;;;;;;4977159;28;45388;-52
2022/01/10 12:33:18;;;;;;;;;33.75;29.25;;;;;;;;4977797;28;45425;-55
2022/01/10 12:35:43;;;;;;;;;31.75;28.50;;;;;;;;4977832;28;46027;-53
2022/01/10 12:38:08;;;;;;;;;31.75;29.25;;;;;;;;4977811;28;45515;-55
2022/01/10 12:40:34;;;;;;;;;34.75;32.50;;;;;;;;4977220;28;45378;-50
2022/01/10 12:42:59;;;;;;;;;30.50;24.25;;;;;;;;4977732;28;45338;-51
2022/01/10 12:45:24;;;;;;;;;36.50;33.50;;;;;;;;4977673;28;45366;-52
2022/01/10 12:47:49;;;;;;;;;29.25;28.25;;;;;;;;4977918;28;45333;-55
2022/01/10 12:50:15;;;;;;;;;61.75;51.00;;;;;;;;4977920;28;45479;-51
2022/01/10 12:52:41;;;;;;;;;15.25;14.75;;;;;;;;4977225;28;45318;-53
2022/01/10 12:55:06;;;;;;;;;37.75;35.00;;;;;;;;4977610;28;46211;-53
2022/01/10 12:57:31;;;;;;;;;32.25;28.25;;;;;;;;4977645;28;45449;-52
2022/01/10 12:59:58;;;;;;;;;38.00;32.25;;;;;;;;4977346;28;45357;-53
2022/01/10 13:02:24;;;;;;;;;39.25;33.00;;;;;;;;4977001;28;45433;-51
2022/01/10 13:04:49;;;;;;;;;34.50;31.00;;;;;;;;4977110;28;45945;-50
2022/01/10 13:07:15;;;;;;;;;34.75;33.25;;;;;;;;4977212;28;45481;-53
2022/01/10 13:09:42;;;;;;;;;35.50;32.25;;;;;;;;4977703;28;45448;-54
2022/01/10 13:12:25;;;;;;;;;36.00;32.25;;;;;;;;4977432;28;45513;-51
2022/01/10 13:14:51;;;;;;;;;35.75;33.00;;;;;;;;4976603;28;45447;-51
2022/01/10 13:17:20;;;;;;;;;37.00;32.75;;;;;;;;4977157;28;45575;-50
2022/01/10 13:19:45;;;;;;;;;28.75;27.75;;;;;;;;4977481;28;45464;-51
2022/01/10 13:22:13;;;;;;;;;32.50;30.50;;;;;;;;4976865;28;45442;-53
2022/01/10 13:24:46;;;;;;;;;33.50;28.00;;;;;;;;4976743;28;45922;-52
2022/01/10 13:27:12;;;;;;;;;39.50;32.50;;;;;;;;4976948;28;45381;-50
2022/01/10 13:29:37;;;;;;;;;32.25;26.25;;;;;;;;4977013;28;45425;-52
2022/01/10 13:32:11;;;;;;;;;34.50;28.50;;;;;;;;4976922;28;45347;-54
2022/01/10 13:34:37;;;;;;;;;28.25;28.25;;;;;;;;4976923;28;45417;-52
2022/01/10 13:37:02;;;;;;;;;30.50;29.25;;;;;;;;4976152;28;45386;-54
2022/01/10 13:39:28;;;;;;;;;29.50;27.25;;;;;;;;4976990;28;45420;-51
2022/01/10 13:41:58;;;;;;;;;33.25;29.75;;;;;;;;4976320;28;45541;-53
2022/01/10 13:44:23;;;;;;;;;30.75;29.00;;;;;;;;4976558;28;45415;-50
2022/01/10 13:46:58;;;;;;;;;32.50;29.00;;;;;;;;4976307;28;45294;-55
2022/01/10 13:49:27;;;;;;;;;35.25;29.75;;;;;;;;4976907;28;45384;-53
2022/01/10 13:52:09;;;;;;;;;34.25;32.50;;;;;;;;4976377;28;45392;-53
2022/01/10 13:54:34;;;;;;;;;30.00;29.25;;;;;;;;4976587;28;45415;-53
2022/01/10 13:57:18;;;;;;;;;28.50;27.50;;;;;;;;4976220;28;45388;-53
2022/01/10 13:59:43;;;;;;;;;35.25;31.00;;;;;;;;4976969;28;45520;-54
2022/01/10 14:02:09;;;;;;;;;32.75;32.75;;;;;;;;4976625;28;45586;-55
2022/01/10 14:04:35;;;;;;;;;35.00;33.00;;;;;;;;4976355;28;47253;-52
2022/01/10 14:07:06;;;;;;;;;33.25;27.50;;;;;;;;4976377;28;45440;-52
2022/01/10 14:09:33;;;;;;;;;36.75;33.00;;;;;;;;4976277;28;45412;-51
2022/01/10 14:11:58;;;;;;;;;40.75;32.00;;;;;;;;4976430;28;45371;-54
2022/01/10 14:14:26;;;;;;;;;37.75;34.50;;;;;;;;4974561;28;46453;-52
2022/01/10 14:16:55;;;;;;;;;43.00;37.75;;;;;;;;4976262;28;45453;-51
2022/01/10 14:19:21;;;;;;;;;30.00;28.75;;;;;;;;4975832;28;45469;-53
2022/01/10 14:21:47;;;;;;;;;41.75;33.25;;;;;;;;4976061;28;45456;-53